createdAt,value
2023-02-16T00:01:58.115Z,42.40
2023-02-16T00:04:27.306Z,42.53
2023-02-16T00:06:56.544Z,40.40
2023-02-16T00:09:25.202Z,41.43
2023-02-16T00:12:16.943Z,41.13
2023-02-16T00:14:46.503Z,41.93
2023-02-16T00:17:14.679Z,40.90
2023-02-16T00:19:43.206Z,43.17
2023-02-16T00:22:12.152Z,41.40
2023-02-16T00:24:40.323Z,41.67
2023-02-16T00:27:14.063Z,40.93
2023-02-16T00:29:45.667Z,40.43
2023-02-16T00:32:15.723Z,41.80
2023-02-16T00:34:44.146Z,41.77
2023-02-16T00:37:13.860Z,40.87
2023-02-16T00:39:42.877Z,41.97
2023-02-16T00:42:14.360Z,42.33
2023-02-16T00:44:43.693Z,41.03
2023-02-16T00:47:18.016Z,43.20
2023-02-16T00:49:47.599Z,42.00
2023-02-16T00:52:26.409Z,40.00
2023-02-16T00:54:54.600Z,39.50
2023-02-16T00:57:22.981Z,40.43
2023-02-16T00:59:53.097Z,41.73
2023-02-16T01:02:21.272Z,41.07
2023-02-16T01:04:50.867Z,40.33
2023-02-16T01:07:38.355Z,41.00
2023-02-16T01:10:24.845Z,41.80
2023-02-16T01:12:53.097Z,41.40
2023-02-16T01:15:23.765Z,40.83
2023-02-16T01:17:52.060Z,41.43
2023-02-16T01:20:23.155Z,40.83
2023-02-16T01:22:51.323Z,40.17
2023-02-16T01:25:19.800Z,41.03
2023-02-16T01:27:48.312Z,42.17
2023-02-16T01:30:18.155Z,41.30
2023-02-16T01:32:51.450Z,39.53
2023-02-16T01:35:20.048Z,39.50
2023-02-16T01:37:49.580Z,40.57
2023-02-16T01:40:24.852Z,40.97
2023-02-16T01:42:53.694Z,40.20
2023-02-16T01:45:25.380Z,39.63
2023-02-16T01:47:54.924Z,40.67
2023-02-16T01:50:24.398Z,38.70
2023-02-16T01:52:56.599Z,38.87
2023-02-16T01:55:26.913Z,39.87
2023-02-16T01:57:58.332Z,40.10
2023-02-16T02:00:30.003Z,38.30
2023-02-16T02:03:20.410Z,39.07
2023-02-16T02:05:47.945Z,38.27
2023-02-16T02:08:21.476Z,38.70
2023-02-16T02:10:54.181Z,39.23
2023-02-16T02:13:24.209Z,39.10
2023-02-16T02:15:52.359Z,38.73
2023-02-16T02:18:20.537Z,40.20
2023-02-16T02:21:17.163Z,38.07
2023-02-16T02:23:50.386Z,38.60
2023-02-16T02:26:48.744Z,38.03
2023-02-16T02:29:29.275Z,38.70
2023-02-16T02:32:01.839Z,36.73
2023-02-16T02:34:33.624Z,38.07
2023-02-16T02:37:06.275Z,37.57
2023-02-16T02:39:36.629Z,37.83
2023-02-16T02:42:06.308Z,37.27
2023-02-16T02:44:39.528Z,37.70
2023-02-16T02:47:07.785Z,36.50
2023-02-16T02:49:36.065Z,38.07
2023-02-16T02:52:04.298Z,36.53
2023-02-16T02:54:53.154Z,35.90
2023-02-16T02:57:44.151Z,36.50
2023-02-16T03:00:33.046Z,35.87
2023-02-16T03:03:04.352Z,35.80
2023-02-16T03:05:33.219Z,35.73
2023-02-16T03:08:06.529Z,36.20
2023-02-16T03:10:54.584Z,36.77
2023-02-16T03:13:23.644Z,35.70
2023-02-16T03:15:55.894Z,36.23
2023-02-16T03:18:43.569Z,35.50
2023-02-16T03:21:32.018Z,35.00
2023-02-16T03:24:19.998Z,36.47
2023-02-16T03:27:08.967Z,36.27
2023-02-16T03:29:38.646Z,35.00
2023-02-16T03:32:08.396Z,35.40
2023-02-16T03:34:38.192Z,34.83
2023-02-16T03:37:07.222Z,35.33
2023-02-16T03:39:55.586Z,35.57
2023-02-16T03:42:24.128Z,35.43
2023-02-16T03:44:52.499Z,35.57
2023-02-16T03:47:21.977Z,34.73
2023-02-16T03:49:50.381Z,34.80
2023-02-16T03:52:18.516Z,36.47
2023-02-16T03:54:46.698Z,35.23
2023-02-16T03:57:14.910Z,35.83
2023-02-16T03:59:43.079Z,35.50
2023-02-16T04:02:11.298Z,34.90
2023-02-16T04:04:40.874Z,35.80
2023-02-16T04:07:08.991Z,35.23
2023-02-16T04:09:37.138Z,35.20
2023-02-16T04:12:23.034Z,35.37
2023-02-16T04:14:51.270Z,34.37
2023-02-16T04:17:19.445Z,33.53
2023-02-16T04:19:49.027Z,35.10
2023-02-16T04:22:17.217Z,34.10
2023-02-16T04:24:45.373Z,35.07
2023-02-16T04:27:13.576Z,36.43
2023-02-16T04:29:41.783Z,35.40
2023-02-16T04:32:10.124Z,34.20
2023-02-16T04:34:38.428Z,34.40
2023-02-16T04:37:07.970Z,35.53
2023-02-16T04:39:36.150Z,34.57
2023-02-16T04:42:04.346Z,34.53
2023-02-16T04:44:32.551Z,35.47
2023-02-16T04:47:00.741Z,35.67
2023-02-16T04:49:29.005Z,35.97
2023-02-16T04:51:57.147Z,36.93
2023-02-16T04:54:26.670Z,34.77
2023-02-16T04:56:55.125Z,35.87
2023-02-16T04:59:23.318Z,35.00
2023-02-16T05:01:51.485Z,35.43
2023-02-16T05:04:19.674Z,34.17
2023-02-16T05:06:47.928Z,34.07
2023-02-16T05:09:16.070Z,35.53
2023-02-16T05:12:03.375Z,34.57
2023-02-16T05:14:45.056Z,34.37
2023-02-16T05:17:14.694Z,34.77
2023-02-16T05:19:43.091Z,33.80
2023-02-16T05:22:11.465Z,35.30
2023-02-16T05:24:40.286Z,34.80
2023-02-16T05:27:10.425Z,33.30
2023-02-16T05:29:38.622Z,35.37
2023-02-16T05:32:06.974Z,34.17
2023-02-16T05:34:35.219Z,33.70
2023-02-16T05:37:03.426Z,34.97
2023-02-16T05:39:31.606Z,36.07
2023-02-16T05:42:00.206Z,34.43
2023-02-16T05:44:29.781Z,34.53
2023-02-16T05:46:57.912Z,34.40
2023-02-16T05:49:26.550Z,35.17
2023-02-16T05:51:54.710Z,35.43
2023-02-16T05:54:22.910Z,36.30
2023-02-16T05:56:52.398Z,35.43
2023-02-16T05:59:20.757Z,35.33
2023-02-16T06:01:52.089Z,34.43
2023-02-16T06:04:20.889Z,33.40
2023-02-16T06:06:49.333Z,35.30
2023-02-16T06:09:17.460Z,34.17
2023-02-16T06:11:45.653Z,37.03
2023-02-16T06:14:15.051Z,35.03
2023-02-16T06:16:44.435Z,36.77
2023-02-16T06:19:13.984Z,36.20
2023-02-16T06:21:42.297Z,35.60
2023-02-16T06:24:11.581Z,34.87
2023-02-16T06:26:39.795Z,34.17
2023-02-16T06:29:08.297Z,35.73
2023-02-16T06:31:37.143Z,35.57
2023-02-16T06:34:05.532Z,34.90
2023-02-16T06:36:35.436Z,35.07
2023-02-16T06:39:03.770Z,37.20
2023-02-16T06:41:37.792Z,38.17
2023-02-16T06:44:06.951Z,36.13
2023-02-16T06:46:35.266Z,35.60
2023-02-16T06:49:03.495Z,36.13
2023-02-16T06:51:32.060Z,35.70
2023-02-16T06:54:01.569Z,37.13
2023-02-16T06:56:29.748Z,35.73
2023-02-16T06:58:57.887Z,35.57
2023-02-16T07:01:26.323Z,35.60
2023-02-16T07:03:55.164Z,36.23
2023-02-16T07:06:24.106Z,36.70
2023-02-16T07:08:52.295Z,36.93
2023-02-16T07:11:22.026Z,35.10
2023-02-16T07:13:50.283Z,35.03
2023-02-16T07:16:18.533Z,36.13
2023-02-16T07:18:47.327Z,36.13
2023-02-16T07:21:15.854Z,35.50
2023-02-16T07:23:44.171Z,35.67
2023-02-16T07:26:12.505Z,37.03
2023-02-16T07:28:42.049Z,36.20
2023-02-16T07:31:11.377Z,36.10
2023-02-16T07:33:39.972Z,36.20
2023-02-16T07:36:08.440Z,35.50
2023-02-16T07:38:36.657Z,37.23
2023-02-16T07:41:08.644Z,36.97
2023-02-16T07:43:37.769Z,35.67
2023-02-16T07:46:07.426Z,36.50
2023-02-16T07:48:35.740Z,36.23
2023-02-16T07:51:04.404Z,35.93
2023-02-16T07:53:32.888Z,37.23
2023-02-16T07:56:01.108Z,36.97
2023-02-16T07:58:29.348Z,37.23
2023-02-16T08:00:58.251Z,39.30
2023-02-16T08:03:27.861Z,40.03
2023-02-16T08:05:56.101Z,36.77
2023-02-16T08:08:24.290Z,38.50
2023-02-16T08:10:52.473Z,38.80
2023-02-16T08:13:20.702Z,37.53
2023-02-16T08:15:48.894Z,38.23
2023-02-16T08:18:17.100Z,39.40
2023-02-16T08:21:02.807Z,39.37
2023-02-16T08:23:32.434Z,39.40
2023-02-16T08:26:00.693Z,39.77
2023-02-16T08:28:29.594Z,40.27
2023-02-16T08:30:57.893Z,40.33
2023-02-16T08:33:26.078Z,40.37
2023-02-16T08:35:55.629Z,41.57
2023-02-16T08:38:23.842Z,41.73
2023-02-16T08:40:52.323Z,42.60
2023-02-16T08:43:20.540Z,44.77
2023-02-16T08:45:48.953Z,45.53
2023-02-16T08:48:17.814Z,44.27
2023-02-16T08:50:53.392Z,45.07
2023-02-16T08:53:23.125Z,46.77
2023-02-16T08:55:55.587Z,45.27
2023-02-16T08:58:24.474Z,47.30
2023-02-16T09:00:52.741Z,48.07
2023-02-16T09:03:21.040Z,48.93
2023-02-16T09:05:49.777Z,47.93
2023-02-16T09:08:18.266Z,43.97
2023-02-16T09:10:47.798Z,48.93
2023-02-16T09:13:16.207Z,47.63
2023-02-16T09:15:44.798Z,50.17
2023-02-16T09:18:14.012Z,52.17
2023-02-16T09:20:44.893Z,52.90
2023-02-16T09:23:14.850Z,51.10
2023-02-16T09:25:43.045Z,53.90
2023-02-16T09:28:13.723Z,52.93
2023-02-16T09:30:41.963Z,57.90
2023-02-16T09:33:10.168Z,59.57
2023-02-16T09:35:40.173Z,66.50
2023-02-16T09:38:16.890Z,74.67
2023-02-16T09:40:45.515Z,64.73
2023-02-16T09:43:22.720Z,73.07
2023-02-16T09:45:53.236Z,69.33
2023-02-16T09:48:23.673Z,64.63
2023-02-16T09:50:54.912Z,56.27
2023-02-16T09:53:24.556Z,52.17
2023-02-16T09:55:58.088Z,49.67
2023-02-16T09:58:30.647Z,52.73
2023-02-16T10:01:05.418Z,52.20
2023-02-16T10:03:38.123Z,53.27
2023-02-16T10:06:14.875Z,53.63
2023-02-16T10:08:45.482Z,55.93
2023-02-16T10:11:30.686Z,55.93
2023-02-16T10:14:02.660Z,67.03
2023-02-16T10:16:32.177Z,68.93
2023-02-16T10:19:02.504Z,73.30
2023-02-16T10:21:31.598Z,65.10
2023-02-16T10:24:02.457Z,79.13
2023-02-16T10:26:34.064Z,68.00
2023-02-16T10:29:07.551Z,72.23
2023-02-16T10:31:37.785Z,77.93
2023-02-16T10:34:14.063Z,64.43
2023-02-16T10:36:48.207Z,57.87
2023-02-16T10:39:21.381Z,56.93
2023-02-16T10:41:52.632Z,60.60
2023-02-16T10:44:24.254Z,63.33
2023-02-16T10:46:56.510Z,56.00
2023-02-16T10:49:26.805Z,58.07
2023-02-16T10:51:55.797Z,67.87
2023-02-16T10:54:26.122Z,73.60
2023-02-16T10:56:57.411Z,59.97
2023-02-16T10:59:28.047Z,59.67
2023-02-16T11:01:57.561Z,54.63
2023-02-16T11:04:39.592Z,47.50
2023-02-16T11:07:09.082Z,52.90
2023-02-16T11:09:37.815Z,56.10
2023-02-16T11:12:16.756Z,52.83
2023-02-16T11:14:51.364Z,60.17
2023-02-16T11:17:20.296Z,59.67
2023-02-16T11:19:53.845Z,54.73
2023-02-16T11:22:29.591Z,52.03
2023-02-16T11:24:59.298Z,50.10
2023-02-16T11:27:27.480Z,44.83
2023-02-16T11:30:22.198Z,42.33
2023-02-16T11:32:50.734Z,40.13
2023-02-16T11:35:19.641Z,39.27
2023-02-16T11:37:48.069Z,39.80
2023-02-16T11:40:21.521Z,41.90
2023-02-16T11:42:51.632Z,39.80
2023-02-16T11:45:26.938Z,45.00
2023-02-16T11:47:56.617Z,36.90
2023-02-16T11:50:26.939Z,34.77
2023-02-16T11:52:55.684Z,32.60
2023-02-16T11:55:26.914Z,33.70
2023-02-16T11:57:57.009Z,33.77
2023-02-16T12:00:27.574Z,35.43
2023-02-16T12:03:04.413Z,31.40
2023-02-16T12:05:37.509Z,31.27
2023-02-16T12:08:12.809Z,31.37
2023-02-16T12:10:42.342Z,30.43
2023-02-16T12:13:17.703Z,30.97
2023-02-16T12:15:50.998Z,31.03
2023-02-16T12:18:28.966Z,31.03
2023-02-16T12:21:00.710Z,30.73
2023-02-16T12:23:34.065Z,28.73
2023-02-16T12:26:11.389Z,27.83
2023-02-16T12:28:42.259Z,27.90
2023-02-16T12:31:17.078Z,26.57
2023-02-16T12:33:49.616Z,23.57
2023-02-16T12:36:24.767Z,25.37
2023-02-16T12:38:55.555Z,23.90
2023-02-16T12:41:27.605Z,23.90
2023-02-16T12:43:57.814Z,24.50
2023-02-16T12:46:29.574Z,25.60
2023-02-16T12:49:01.131Z,25.67
2023-02-16T12:51:32.137Z,24.67
2023-02-16T12:54:03.146Z,26.63
2023-02-16T12:56:33.809Z,26.70
2023-02-16T12:59:16.796Z,27.43
2023-02-16T13:01:47.166Z,27.27
2023-02-16T13:04:19.312Z,27.40
2023-02-16T13:06:50.374Z,27.57
2023-02-16T13:09:23.631Z,27.33
2023-02-16T13:11:54.149Z,27.13
2023-02-16T13:14:25.018Z,26.23
2023-02-16T13:16:56.981Z,25.77
2023-02-16T13:19:25.178Z,26.37
2023-02-16T13:22:05.379Z,27.00
2023-02-16T13:24:39.148Z,24.30
2023-02-16T13:27:14.001Z,26.30
2023-02-16T13:29:52.415Z,25.10
2023-02-16T13:32:40.583Z,27.13
2023-02-16T13:35:23.660Z,25.57
2023-02-16T13:37:59.822Z,25.13
2023-02-16T13:40:46.034Z,24.03
2023-02-16T13:43:24.787Z,24.53
2023-02-16T13:45:54.496Z,24.53
2023-02-16T13:48:28.550Z,25.77
2023-02-16T13:50:57.977Z,25.00
2023-02-16T13:53:26.183Z,25.00
2023-02-16T13:56:09.279Z,24.10
2023-02-16T13:58:37.563Z,24.37
2023-02-16T14:01:26.496Z,23.77
2023-02-16T14:03:56.129Z,24.60
2023-02-16T14:06:32.800Z,24.30
2023-02-16T14:09:15.993Z,23.77
2023-02-16T14:11:59.419Z,23.67
2023-02-16T14:14:29.147Z,23.20
2023-02-16T14:16:57.443Z,22.53
2023-02-16T14:19:27.935Z,21.87
2023-02-16T14:21:56.159Z,21.70
2023-02-16T14:24:30.035Z,22.43
2023-02-16T14:27:00.044Z,21.50
2023-02-16T14:29:29.555Z,21.23
2023-02-16T14:32:00.366Z,20.23
2023-02-16T14:34:31.565Z,21.77
2023-02-16T14:37:22.381Z,21.77
2023-02-16T14:40:11.209Z,22.43
2023-02-16T14:42:38.886Z,20.07
2023-02-16T14:45:13.338Z,20.97
2023-02-16T14:47:47.004Z,22.30
2023-02-16T14:50:26.520Z,21.67
2023-02-16T14:53:05.522Z,21.63
2023-02-16T14:55:57.556Z,20.50
2023-02-16T14:58:28.927Z,21.60
2023-02-16T15:00:59.247Z,21.87
2023-02-16T15:03:28.081Z,21.30
2023-02-16T15:05:59.106Z,22.63
2023-02-16T15:08:34.745Z,21.57
2023-02-16T15:11:05.974Z,24.30
2023-02-16T15:13:35.410Z,23.97
2023-02-16T15:16:05.964Z,27.23
2023-02-16T15:18:35.740Z,25.63
2023-02-16T15:21:05.681Z,30.33
2023-02-16T15:23:34.998Z,28.60
2023-02-16T15:26:04.302Z,29.03
2023-02-16T15:28:33.739Z,30.43
2023-02-16T15:31:03.223Z,32.80
2023-02-16T15:33:37.148Z,31.90
2023-02-16T15:36:08.939Z,29.13
2023-02-16T15:38:38.978Z,34.57
2023-02-16T15:41:08.622Z,31.20
2023-02-16T15:43:39.989Z,32.13
2023-02-16T15:46:09.271Z,31.63
2023-02-16T15:48:38.879Z,42.97
2023-02-16T15:51:13.721Z,60.17
2023-02-16T15:53:45.720Z,67.83
2023-02-16T15:56:29.526Z,80.93
2023-02-16T15:58:58.273Z,82.10
2023-02-16T16:01:32.902Z,100.57
2023-02-16T16:04:02.478Z,89.60
2023-02-16T16:06:37.135Z,89.23
2023-02-16T16:09:08.373Z,107.93
2023-02-16T16:11:38.179Z,102.13
2023-02-16T16:14:07.160Z,124.43
2023-02-16T16:16:36.079Z,148.70
2023-02-16T16:19:08.301Z,173.57
2023-02-16T16:21:47.990Z,211.53
2023-02-16T16:24:28.530Z,232.83
2023-02-16T16:26:57.720Z,255.43
2023-02-16T16:29:33.147Z,277.40
2023-02-16T16:32:01.812Z,280.33
2023-02-16T16:34:39.784Z,226.13
2023-02-16T16:37:20.228Z,263.17
2023-02-16T16:39:59.000Z,263.57
2023-02-16T16:42:27.313Z,256.17
2023-02-16T16:45:00.131Z,280.93
2023-02-16T16:47:30.054Z,315.93
2023-02-16T16:49:59.105Z,334.97
2023-02-16T16:52:36.205Z,350.03
2023-02-16T16:55:17.043Z,268.53
2023-02-16T16:57:45.211Z,319.37
2023-02-16T17:00:14.131Z,330.13
2023-02-16T17:02:42.351Z,340.60
2023-02-16T17:05:10.718Z,340.57
2023-02-16T17:07:40.233Z,368.17
2023-02-16T17:10:09.105Z,402.83
2023-02-16T17:12:37.364Z,352.50
2023-02-16T17:15:08.156Z,276.57
2023-02-16T17:17:38.406Z,379.53
2023-02-16T17:20:15.337Z,396.03
2023-02-16T17:22:44.852Z,452.63
2023-02-16T17:25:13.265Z,427.80
2023-02-16T17:27:41.452Z,456.37
2023-02-16T17:30:10.985Z,489.03
2023-02-16T17:32:39.291Z,522.17
2023-02-16T17:35:07.768Z,562.77
2023-02-16T17:37:36.495Z,468.43
2023-02-16T17:40:06.795Z,539.23
2023-02-16T17:42:35.252Z,567.40
2023-02-16T17:45:03.394Z,569.67
2023-02-16T17:47:31.885Z,586.23
2023-02-16T17:50:00.134Z,581.10
2023-02-16T17:52:28.348Z,611.37
2023-02-16T17:54:56.560Z,591.10
2023-02-16T17:57:26.234Z,649.00
2023-02-16T17:59:54.432Z,670.20
2023-02-16T18:02:22.609Z,639.97
2023-02-16T18:04:50.876Z,664.20
2023-02-16T18:07:19.961Z,690.10
2023-02-16T18:09:48.293Z,665.77
2023-02-16T18:12:16.509Z,676.17
2023-02-16T18:14:46.039Z,722.80
2023-02-16T18:17:14.352Z,707.70
2023-02-16T18:19:42.544Z,719.60
2023-02-16T18:22:10.940Z,723.27
2023-02-16T18:24:39.113Z,718.10
2023-02-16T18:27:07.389Z,695.57
2023-02-16T18:29:35.605Z,719.33
2023-02-16T18:32:05.244Z,726.03
2023-02-16T18:34:34.866Z,734.80
2023-02-16T18:37:03.062Z,749.97
2023-02-16T18:39:31.249Z,701.63
2023-02-16T18:41:59.385Z,733.50
2023-02-16T18:44:27.609Z,736.33
2023-02-16T18:46:55.957Z,737.00
2023-02-16T18:49:25.497Z,729.53
2023-02-16T18:51:53.625Z,749.83
2023-02-16T18:54:21.837Z,743.73
2023-02-16T18:56:49.986Z,733.10
2023-02-16T18:59:18.147Z,743.03
2023-02-16T19:01:46.387Z,750.53
2023-02-16T19:04:14.668Z,741.17
2023-02-16T19:06:44.158Z,755.83
2023-02-16T19:09:12.314Z,756.47
2023-02-16T19:11:40.698Z,747.83
2023-02-16T19:14:09.438Z,754.93
2023-02-16T19:16:37.761Z,776.80
2023-02-16T19:19:05.899Z,761.23
2023-02-16T19:21:38.214Z,752.40
2023-02-16T19:24:08.740Z,750.07
2023-02-16T19:26:37.798Z,731.23
2023-02-16T19:29:06.457Z,759.03
2023-02-16T19:31:35.495Z,751.07
2023-02-16T19:34:03.735Z,759.47
2023-02-16T19:36:34.250Z,736.07
2023-02-16T19:39:02.439Z,756.47
2023-02-16T19:41:32.741Z,740.07
2023-02-16T19:44:00.915Z,753.50
2023-02-16T19:46:30.090Z,771.47
2023-02-16T19:48:58.910Z,770.70
2023-02-16T19:51:27.260Z,773.00
2023-02-16T19:53:55.493Z,770.93
2023-02-16T19:56:25.031Z,759.57
2023-02-16T19:58:54.747Z,744.93
2023-02-16T20:01:24.065Z,756.80
2023-02-16T20:03:53.299Z,751.03
2023-02-16T20:06:22.501Z,752.03
2023-02-16T20:08:51.401Z,757.10
2023-02-16T20:11:20.443Z,768.07
2023-02-16T20:13:48.921Z,779.70
2023-02-16T20:16:19.246Z,777.80
2023-02-16T20:18:47.486Z,768.27
2023-02-16T20:21:17.548Z,786.07
2023-02-16T20:23:46.305Z,783.33
2023-02-16T20:26:16.143Z,773.27
2023-02-16T20:28:44.352Z,796.63
2023-02-16T20:31:12.916Z,791.37
2023-02-16T20:33:43.094Z,794.10
2023-02-16T20:36:11.358Z,786.33
2023-02-16T20:38:39.705Z,790.33
2023-02-16T20:41:07.897Z,794.50
2023-02-16T20:43:36.090Z,793.20
2023-02-16T20:46:04.991Z,790.97
2023-02-16T20:48:33.794Z,796.70
2023-02-16T20:51:05.467Z,813.73
2023-02-16T20:53:33.691Z,803.47
2023-02-16T20:56:03.416Z,803.23
2023-02-16T20:58:32.016Z,789.37
2023-02-16T21:01:00.404Z,803.30
2023-02-16T21:03:28.639Z,812.87
2023-02-16T21:05:57.054Z,798.73
2023-02-16T21:08:26.614Z,806.70
2023-02-16T21:10:54.746Z,798.57
2023-02-16T21:13:22.898Z,806.90
2023-02-16T21:15:51.219Z,795.90
2023-02-16T21:18:19.412Z,796.97
2023-02-16T21:20:47.619Z,797.87
2023-02-16T21:23:15.826Z,808.77
2023-02-16T21:25:45.426Z,799.87
2023-02-16T21:28:13.614Z,806.20
2023-02-16T21:30:43.073Z,791.73
2023-02-16T21:33:11.488Z,793.97
2023-02-16T21:35:39.655Z,798.10
2023-02-16T21:38:07.872Z,787.13
2023-02-16T21:40:53.877Z,788.73
2023-02-16T21:43:23.386Z,779.17
2023-02-16T21:45:59.418Z,752.60
2023-02-16T21:48:45.234Z,749.10
2023-02-16T21:51:13.527Z,742.63
2023-02-16T21:53:41.698Z,759.87
2023-02-16T21:56:16.700Z,752.50
2023-02-16T21:58:46.245Z,756.90
2023-02-16T22:01:14.619Z,772.93
2023-02-16T22:03:42.850Z,763.73
2023-02-16T22:06:11.739Z,759.53
2023-02-16T22:08:39.922Z,731.77
2023-02-16T22:11:10.065Z,710.17
2023-02-16T22:13:38.500Z,749.50
2023-02-16T22:16:12.010Z,767.77
2023-02-16T22:18:40.299Z,761.37
2023-02-16T22:21:08.773Z,721.27
2023-02-16T22:23:37.093Z,754.27
2023-02-16T22:26:06.366Z,763.93
2023-02-16T22:28:34.742Z,726.57
2023-02-16T22:31:07.123Z,675.43
2023-02-16T22:33:36.715Z,728.17
2023-02-16T22:36:09.894Z,753.17
2023-02-16T22:38:38.106Z,740.77
2023-02-16T22:41:06.817Z,699.70
2023-02-16T22:43:35.262Z,738.50
2023-02-16T22:46:06.525Z,737.20
2023-02-16T22:48:34.906Z,711.70
2023-02-16T22:51:05.150Z,746.93
2023-02-16T22:53:33.405Z,716.17
2023-02-16T22:56:02.204Z,726.40
2023-02-16T22:58:31.018Z,736.23
2023-02-16T23:00:59.237Z,710.10
2023-02-16T23:03:42.477Z,666.57
2023-02-16T23:06:16.522Z,651.83
2023-02-16T23:08:45.218Z,693.90
2023-02-16T23:11:13.784Z,722.83
2023-02-16T23:13:41.971Z,703.73
2023-02-16T23:16:12.235Z,724.30
2023-02-16T23:18:40.808Z,740.50
2023-02-16T23:21:09.403Z,743.83
2023-02-16T23:23:38.893Z,711.33
2023-02-16T23:26:07.988Z,676.37
2023-02-16T23:28:36.460Z,651.73
2023-02-16T23:31:04.717Z,601.73
2023-02-16T23:33:32.918Z,636.27
2023-02-16T23:36:01.325Z,607.53
2023-02-16T23:38:29.534Z,571.47
2023-02-16T23:40:59.787Z,554.87
2023-02-16T23:43:28.017Z,542.80
2023-02-16T23:45:56.310Z,555.80
2023-02-16T23:48:24.808Z,557.53
2023-02-16T23:50:53.513Z,598.83
2023-02-16T23:53:22.737Z,640.87
2023-02-16T23:55:59.838Z,680.67
2023-02-16T23:58:28.791Z,699.00
